This is the latest recevied weather packets stored in our database for station/object OK1FPA-13. If no packets are shown the sender has not sent any weather packets the latest 10 day(s).
| Time | Temp. | Humidity | Pressure | Rain* | Wind** | Luminosity | Snow |
|---|---|---|---|---|---|---|---|
| 1777950278 | 11.11° C | 73% | 1008.4 hPa | - | - | - | - |
| 1777949678 | 11.67° C | 71% | 1008.5 hPa | - | - | - | - |
| 1777949078 | 11.67° C | 72% | 1008.6 hPa | - | - | - | - |
| 1777948478 | 12.22° C | 73% | 1008.7 hPa | - | - | - | - |
| 1777947879 | 12.22° C | 73% | 1008.8 hPa | - | - | - | - |
| 1777947278 | 12.22° C | 74% | 1008.9 hPa | - | - | - | - |
| 1777946678 | 12.22° C | 74% | 1009 hPa | - | - | - | - |
| 1777946081 | 12.78° C | 75% | 1009.1 hPa | - | - | - | - |
| 1777945478 | 12.22° C | 78% | 1009.2 hPa | - | - | - | - |
| 1777944878 | 12.22° C | 72% | 1009.4 hPa | - | - | - | - |
| 1777944281 | 12.22° C | 71% | 1009.5 hPa | - | - | - | - |
| 1777943677 | 12.78° C | 71% | 1009.5 hPa | - | - | - | - |
| 1777943077 | 12.78° C | 72% | 1009.5 hPa | - | - | - | - |
| 1777942477 | 12.78° C | 73% | 1009.8 hPa | - | - | - | - |
| 1777941877 | 13.33° C | 69% | 1009.8 hPa | - | - | - | - |
| 1777941277 | 13.89° C | 66% | 1009.7 hPa | - | - | - | - |
| 1777940677 | 13.89° C | 65% | 1009.7 hPa | - | - | - | - |
| 1777940077 | 13.89° C | 67% | 1010 hPa | - | - | - | - |
| 1777939477 | 14.44° C | 63% | 1009.9 hPa | - | - | - | - |
| 1777938877 | 15° C | 62% | 1009.9 hPa | - | - | - | - |
| 1777938277 | 15.56° C | 57% | 1009.9 hPa | - | - | - | - |
| 1777937677 | 15.56° C | 55% | 1009.8 hPa | - | - | - | - |
| 1777937076 | 15° C | 56% | 1009.7 hPa | - | - | - | - |
| 1777936477 | 14.44° C | 60% | 1009.8 hPa | - | - | - | - |
| 1777935877 | 14.44° C | 59% | 1009.8 hPa | - | - | - | - |
* Rain since midnight (hover to see other rain measurements)
** Current wind speed in m/s (hover to see current wind gust speed)